Terminal Aerodrome Forecast
Issued by NWS

Home | Current Version | Previous Version | Text Only | Print | Product List | Glossary On
Versions: 1 2 3 4 5 6 7 8 9 10 11 12 13 14 15 16 17 18 19 20
000
FTUS43 KDLH 251725
TAFHIB
TAF
KHIB 251725Z 2518/2618 14012G19KT P6SM BKN035
     FM260200 13007KT P6SM VCSH OVC040
     FM260900 14005KT P6SM VCSH SCT007 OVC025
     FM261500 16008KT 5SM BR VCSH SCT007 OVC015=

USA.gov is the U.S. government's official web portal to all federal, state and local government web resources and services.